Time;durP1;ratioP1;P1;durP2;ratioP2;P2;SDS_P1;SDS_P2;PMS_P1;PMS_P2;Temp;Humidity;BMP_temperature;BMP_pressure;BME280_temperature;BME280_humidity;BME280_pressure;Samples;Min_cycle;Max_cycle;Signal;HPM_P1;HPM_P2
2021/06/29 00:02:02;;;;;;;6.07;5.57;;;;;;;;;;5076411;28;20051;-53
2021/06/29 00:04:27;;;;;;;5.40;5.00;;;;;;;;;;5087731;28;20339;-56
2021/06/29 00:06:52;;;;;;;6.20;5.63;;;;;;;;;;5094694;28;20455;-55
2021/06/29 00:09:17;;;;;;;6.20;5.70;;;;;;;;;;5076973;28;20546;-52
2021/06/29 00:11:43;;;;;;;6.80;6.20;;;;;;;;;;5079911;28;20025;-54
2021/06/29 00:14:08;;;;;;;6.72;6.13;;;;;;;;;;5079020;28;20020;-54
2021/06/29 00:16:33;;;;;;;6.10;5.65;;;;;;;;;;5074685;28;20021;-52
2021/06/29 00:18:59;;;;;;;6.60;6.03;;;;;;;;;;5074073;28;20020;-53
2021/06/29 00:21:24;;;;;;;6.13;5.50;;;;;;;;;;5072214;28;20036;-54
2021/06/29 00:23:49;;;;;;;5.95;5.55;;;;;;;;;;5074900;28;20021;-55
2021/06/29 00:26:14;;;;;;;6.22;5.72;;;;;;;;;;5093815;28;20020;-55
2021/06/29 00:28:40;;;;;;;6.65;5.88;;;;;;;;;;5092634;28;20024;-54
2021/06/29 00:31:05;;;;;;;6.93;6.32;;;;;;;;;;5085269;28;20074;-56
2021/06/29 00:33:30;;;;;;;6.57;5.97;;;;;;;;;;5083218;28;20020;-54
2021/06/29 00:35:55;;;;;;;6.10;5.60;;;;;;;;;;5073806;28;20075;-52
2021/06/29 00:38:21;;;;;;;6.35;5.75;;;;;;;;;;5074067;28;20025;-52
2021/06/29 00:40:46;;;;;;;6.57;6.18;;;;;;;;;;5072073;28;20027;-55
2021/06/29 00:43:11;;;;;;;7.85;7.05;;;;;;;;;;5089942;28;20522;-53
2021/06/29 00:45:36;;;;;;;7.85;7.15;;;;;;;;;;5073675;28;20017;-55
2021/06/29 00:48:02;;;;;;;8.82;8.02;;;;;;;;;;5072516;28;20070;-53
2021/06/29 00:50:27;;;;;;;8.63;7.93;;;;;;;;;;5076314;28;20475;-54
2021/06/29 00:52:52;;;;;;;9.15;8.45;;;;;;;;;;5073906;28;20099;-53
2021/06/29 00:55:17;;;;;;;9.35;8.60;;;;;;;;;;5079505;28;20118;-55
2021/06/29 00:57:44;;;;;;;10.05;9.00;;;;;;;;;;5082714;28;20048;-56
2021/06/29 01:00:09;;;;;;;9.98;9.07;;;;;;;;;;5091285;28;20051;-55
2021/06/29 01:02:34;;;;;;;10.07;8.75;;;;;;;;;;5080851;28;20099;-54
2021/06/29 01:05:00;;;;;;;10.35;9.60;;;;;;;;;;5078015;28;20020;-54
2021/06/29 01:07:25;;;;;;;9.85;9.05;;;;;;;;;;5082624;28;20013;-53
2021/06/29 01:09:50;;;;;;;10.65;9.65;;;;;;;;;;5080335;28;20087;-56
2021/06/29 01:12:16;;;;;;;11.05;10.15;;;;;;;;;;5086225;28;20359;-52
2021/06/29 01:14:41;;;;;;;10.27;9.43;;;;;;;;;;5083146;28;20024;-54
2021/06/29 01:17:07;;;;;;;10.65;9.85;;;;;;;;;;5087884;28;20032;-55
2021/06/29 01:19:39;;;;;;;10.65;9.75;;;;;;;;;;5073770;28;20016;-51
2021/06/29 01:22:05;;;;;;;11.05;10.15;;;;;;;;;;5073664;28;20127;-54
2021/06/29 01:24:32;;;;;;;10.55;9.65;;;;;;;;;;5082792;28;20082;-54
2021/06/29 01:27:26;;;;;;;10.48;9.68;;;;;;;;;;5073318;28;20012;-50
2021/06/29 01:32:14;;;;;;;10.52;9.73;;;;;;;;;;5084806;28;20028;-52
2021/06/29 01:34:39;;;;;;;10.52;9.55;;;;;;;;;;5082771;28;20031;-54
2021/06/29 01:37:04;;;;;;;10.43;9.60;;;;;;;;;;5087221;28;20475;-54
2021/06/29 01:39:30;;;;;;;11.18;10.27;;;;;;;;;;5092303;28;20032;-55
2021/06/29 01:41:55;;;;;;;9.23;8.60;;;;;;;;;;5088908;28;20074;-55
2021/06/29 01:44:25;;;;;;;10.07;9.20;;;;;;;;;;5091938;28;20012;-54
2021/06/29 01:46:52;;;;;;;9.50;8.70;;;;;;;;;;5074481;28;20111;-55
2021/06/29 01:49:23;;;;;;;10.18;9.30;;;;;;;;;;5072358;28;20020;-55
2021/06/29 01:51:48;;;;;;;11.13;10.02;;;;;;;;;;5075071;28;20039;-56
2021/06/29 01:54:13;;;;;;;10.63;9.63;;;;;;;;;;5084219;28;20031;-53
2021/06/29 01:56:39;;;;;;;10.73;9.60;;;;;;;;;;5091002;28;20407;-55
2021/06/29 01:59:09;;;;;;;9.40;8.50;;;;;;;;;;5082705;28;20539;-56
2021/06/29 02:01:34;;;;;;;8.10;7.25;;;;;;;;;;5072227;28;20036;-55
2021/06/29 02:03:59;;;;;;;7.32;6.72;;;;;;;;;;5072389;28;20058;-54
2021/06/29 02:06:24;;;;;;;7.50;6.90;;;;;;;;;;5084317;28;20013;-54
2021/06/29 02:08:50;;;;;;;7.82;7.03;;;;;;;;;;5088172;28;20043;-55
2021/06/29 02:11:15;;;;;;;7.90;6.63;;;;;;;;;;5079563;28;20095;-54
2021/06/29 02:13:40;;;;;;;6.78;6.20;;;;;;;;;;5092808;28;20024;-55
2021/06/29 02:16:05;;;;;;;7.10;6.45;;;;;;;;;;5090768;28;20024;-53
2021/06/29 02:18:31;;;;;;;6.53;5.93;;;;;;;;;;5072203;28;20025;-52
2021/06/29 02:20:57;;;;;;;6.53;5.78;;;;;;;;;;5070068;28;20150;-55
2021/06/29 02:23:22;;;;;;;6.40;5.95;;;;;;;;;;5072126;28;20468;-52
2021/06/29 02:25:48;;;;;;;7.28;6.68;;;;;;;;;;5078325;28;20024;-55
2021/06/29 02:28:13;;;;;;;6.20;5.50;;;;;;;;;;5089868;28;20012;-55
2021/06/29 02:30:40;;;;;;;5.72;5.32;;;;;;;;;;5081164;28;20125;-55
2021/06/29 02:33:05;;;;;;;6.05;5.28;;;;;;;;;;5092343;28;20020;-53
2021/06/29 02:35:30;;;;;;;5.30;4.90;;;;;;;;;;5085084;28;20456;-54
2021/06/29 02:37:56;;;;;;;6.40;5.80;;;;;;;;;;5072116;28;20028;-54
2021/06/29 02:40:21;;;;;;;6.43;5.93;;;;;;;;;;5071683;28;20020;-54
2021/06/29 02:42:47;;;;;;;7.63;6.93;;;;;;;;;;5077324;28;20032;-54
2021/06/29 02:45:17;;;;;;;7.40;6.80;;;;;;;;;;5081861;28;20018;-55
2021/06/29 02:47:42;;;;;;;7.07;6.47;;;;;;;;;;5072348;28;20012;-55
2021/06/29 02:50:08;;;;;;;6.68;6.13;;;;;;;;;;5071805;28;20017;-56
2021/06/29 02:52:34;;;;;;;7.45;6.75;;;;;;;;;;5082803;28;20025;-53
2021/06/29 02:54:59;;;;;;;6.57;6.07;;;;;;;;;;5072235;28;20020;-55
2021/06/29 02:57:25;;;;;;;6.32;5.75;;;;;;;;;;5072451;28;20028;-55
2021/06/29 02:59:50;;;;;;;5.82;5.20;;;;;;;;;;5071688;28;20032;-54
2021/06/29 03:02:16;;;;;;;6.50;5.95;;;;;;;;;;5087521;28;20115;-55
2021/06/29 03:04:41;;;;;;;8.13;6.60;;;;;;;;;;5088847;28;20031;-53
2021/06/29 03:07:06;;;;;;;6.82;6.15;;;;;;;;;;5077503;28;20066;-56
2021/06/29 03:09:32;;;;;;;7.18;6.13;;;;;;;;;;5095431;28;20031;-54
2021/06/29 03:11:57;;;;;;;6.43;5.88;;;;;;;;;;5087423;28;20085;-54
2021/06/29 03:14:22;;;;;;;7.10;6.40;;;;;;;;;;5086732;28;20024;-52
2021/06/29 03:16:47;;;;;;;8.82;6.72;;;;;;;;;;5093040;28;20035;-53
2021/06/29 03:19:12;;;;;;;7.38;6.72;;;;;;;;;;5094832;28;20103;-55
2021/06/29 03:21:38;;;;;;;7.25;6.75;;;;;;;;;;5083955;28;20483;-53
2021/06/29 03:24:03;;;;;;;8.57;7.25;;;;;;;;;;5075697;28;20012;-56
2021/06/29 03:26:29;;;;;;;9.57;7.25;;;;;;;;;;5092078;28;20479;-54
2021/06/29 03:28:54;;;;;;;8.23;7.53;;;;;;;;;;5095366;28;20094;-54
2021/06/29 03:31:19;;;;;;;7.68;6.97;;;;;;;;;;5092035;28;20024;-55
2021/06/29 03:33:44;;;;;;;6.13;5.55;;;;;;;;;;5091346;28;20077;-54
2021/06/29 03:36:10;;;;;;;6.30;5.72;;;;;;;;;;5083017;28;20015;-53
2021/06/29 03:38:36;;;;;;;6.18;5.53;;;;;;;;;;5075085;28;20476;-55
2021/06/29 03:41:01;;;;;;;5.47;5.07;;;;;;;;;;5073611;28;20056;-54
2021/06/29 03:43:27;;;;;;;7.03;6.05;;;;;;;;;;5075060;28;20029;-55
2021/06/29 03:45:52;;;;;;;6.65;5.78;;;;;;;;;;5079969;28;20096;-55
2021/06/29 03:48:17;;;;;;;6.90;6.40;;;;;;;;;;5081919;28;20421;-56
2021/06/29 03:50:42;;;;;;;6.22;5.82;;;;;;;;;;5077192;28;20270;-53
2021/06/29 03:53:07;;;;;;;7.00;6.30;;;;;;;;;;5093537;28;20032;-56
2021/06/29 03:55:33;;;;;;;5.65;5.22;;;;;;;;;;5076729;28;20031;-55
2021/06/29 03:57:58;;;;;;;5.95;5.43;;;;;;;;;;5074670;28;20500;-56
2021/06/29 04:00:24;;;;;;;6.35;5.55;;;;;;;;;;5074313;28;20103;-55
2021/06/29 04:02:49;;;;;;;5.32;4.82;;;;;;;;;;5078467;28;20162;-55
2021/06/29 04:05:17;;;;;;;4.90;4.47;;;;;;;;;;5084211;28;20027;-56
2021/06/29 04:07:42;;;;;;;4.82;4.38;;;;;;;;;;5074763;28;20070;-55
2021/06/29 04:10:07;;;;;;;4.78;4.38;;;;;;;;;;5084219;28;20056;-53
2021/06/29 04:12:33;;;;;;;5.50;3.85;;;;;;;;;;5076636;28;20480;-55
2021/06/29 04:14:58;;;;;;;3.40;3.10;;;;;;;;;;5083135;28;20033;-56
2021/06/29 04:17:23;;;;;;;3.50;3.20;;;;;;;;;;5075682;28;20021;-56
2021/06/29 04:19:48;;;;;;;5.05;3.30;;;;;;;;;;5073789;28;20050;-55
2021/06/29 04:22:14;;;;;;;3.30;3.00;;;;;;;;;;5077872;28;20108;-54
2021/06/29 04:24:39;;;;;;;2.83;2.38;;;;;;;;;;5083591;28;20026;-55
2021/06/29 04:27:04;;;;;;;3.47;2.85;;;;;;;;;;5073952;28;20024;-52
2021/06/29 04:29:30;;;;;;;3.88;3.53;;;;;;;;;;5077801;28;20532;-55
2021/06/29 04:31:55;;;;;;;3.83;2.85;;;;;;;;;;5086924;28;20099;-54
2021/06/29 04:34:20;;;;;;;4.10;2.55;;;;;;;;;;5083275;28;20104;-55
2021/06/29 04:36:46;;;;;;;3.45;2.70;;;;;;;;;;5093733;28;20150;-54
2021/06/29 04:39:11;;;;;;;3.05;2.72;;;;;;;;;;5091610;28;20047;-54
2021/06/29 04:41:36;;;;;;;2.80;2.60;;;;;;;;;;5080011;28;20364;-54
2021/06/29 04:44:02;;;;;;;3.25;2.95;;;;;;;;;;5087892;28;20020;-55
2021/06/29 04:46:28;;;;;;;2.65;2.28;;;;;;;;;;5091508;28;20023;-53
2021/06/29 04:48:53;;;;;;;4.00;2.17;;;;;;;;;;5074601;28;20031;-55
2021/06/29 04:51:18;;;;;;;2.28;2.08;;;;;;;;;;5088342;28;20024;-53
2021/06/29 04:53:43;;;;;;;2.38;2.17;;;;;;;;;;5093871;28;20023;-56
2021/06/29 04:56:18;;;;;;;3.13;2.25;;;;;;;;;;5088363;28;20023;-55
2021/06/29 04:58:48;;;;;;;2.80;2.42;;;;;;;;;;5090858;28;20023;-56
2021/06/29 05:01:13;;;;;;;2.58;2.40;;;;;;;;;;5076330;28;20143;-52
2021/06/29 05:03:39;;;;;;;3.25;2.72;;;;;;;;;;5093617;28;20099;-53
2021/06/29 05:06:04;;;;;;;2.90;2.70;;;;;;;;;;5075377;28;20464;-54
2021/06/29 05:08:30;;;;;;;2.25;2.15;;;;;;;;;;5073409;28;20013;-55
2021/06/29 05:10:55;;;;;;;3.47;2.22;;;;;;;;;;5072415;28;20025;-53
2021/06/29 05:13:20;;;;;;;2.45;2.25;;;;;;;;;;5091115;28;20438;-53
2021/06/29 05:15:46;;;;;;;2.45;2.25;;;;;;;;;;5084079;28;20563;-54
2021/06/29 05:18:11;;;;;;;2.83;2.15;;;;;;;;;;5073511;28;20510;-54
2021/06/29 05:20:36;;;;;;;5.43;2.28;;;;;;;;;;5072188;28;20132;-53
2021/06/29 05:23:01;;;;;;;3.40;2.20;;;;;;;;;;5090310;28;20102;-55
2021/06/29 05:25:28;;;;;;;2.35;1.98;;;;;;;;;;5092178;28;20059;-52
2021/06/29 05:27:53;;;;;;;2.55;2.17;;;;;;;;;;5092531;28;20456;-55
2021/06/29 05:30:19;;;;;;;2.35;1.83;;;;;;;;;;5088575;28;20078;-53
2021/06/29 05:32:44;;;;;;;3.45;2.10;;;;;;;;;;5075122;28;20020;-53
2021/06/29 05:35:09;;;;;;;2.63;1.40;;;;;;;;;;5086939;28;20028;-54
2021/06/29 05:37:35;;;;;;;2.53;2.03;;;;;;;;;;5088157;28;20016;-51
2021/06/29 05:40:00;;;;;;;2.03;1.80;;;;;;;;;;5087463;28;20680;-55
2021/06/29 05:42:25;;;;;;;1.80;1.40;;;;;;;;;;5089143;28;20074;-55
2021/06/29 05:44:51;;;;;;;1.55;1.42;;;;;;;;;;5085160;28;20024;-53
2021/06/29 05:47:20;;;;;;;1.75;1.02;;;;;;;;;;5076500;28;20040;-54
2021/06/29 05:49:46;;;;;;;1.55;1.40;;;;;;;;;;5090023;28;20024;-51
2021/06/29 05:52:11;;;;;;;1.20;1.10;;;;;;;;;;5079891;28;20507;-54
2021/06/29 05:54:36;;;;;;;2.45;1.10;;;;;;;;;;5082300;28;20072;-53
2021/06/29 05:57:02;;;;;;;2.13;1.20;;;;;;;;;;5086466;28;20032;-52
2021/06/29 05:59:27;;;;;;;0.80;0.70;;;;;;;;;;5090277;28;20024;-55
2021/06/29 06:01:53;;;;;;;2.22;1.00;;;;;;;;;;5088532;28;20043;-55
2021/06/29 06:04:18;;;;;;;1.05;0.80;;;;;;;;;;5091125;28;20031;-54
2021/06/29 06:06:43;;;;;;;1.15;1.05;;;;;;;;;;5091431;28;20024;-54
2021/06/29 06:09:09;;;;;;;1.35;1.25;;;;;;;;;;5087699;28;20467;-51
2021/06/29 06:11:34;;;;;;;1.40;1.30;;;;;;;;;;5087907;28;20347;-55
2021/06/29 06:13:59;;;;;;;4.85;1.58;;;;;;;;;;5090116;28;20024;-52
2021/06/29 06:16:24;;;;;;;1.50;1.40;;;;;;;;;;5091105;28;20027;-52
2021/06/29 06:18:49;;;;;;;1.67;1.30;;;;;;;;;;5080546;28;20440;-51
2021/06/29 06:21:15;;;;;;;2.20;2.00;;;;;;;;;;5070625;28;20489;-52
2021/06/29 06:23:40;;;;;;;2.28;1.70;;;;;;;;;;5078024;28;20016;-56
2021/06/29 06:26:05;;;;;;;2.95;2.30;;;;;;;;;;5086538;28;20103;-51
2021/06/29 06:28:30;;;;;;;2.40;1.98;;;;;;;;;;5082618;28;20512;-54
2021/06/29 06:30:56;;;;;;;1.55;1.40;;;;;;;;;;5071037;28;20481;-55
2021/06/29 06:33:21;;;;;;;2.25;1.17;;;;;;;;;;5080344;28;20024;-54
2021/06/29 06:35:47;;;;;;;2.40;1.40;;;;;;;;;;5089526;28;20534;-53
2021/06/29 06:38:12;;;;;;;1.58;1.48;;;;;;;;;;5090286;28;20020;-52
2021/06/29 06:40:38;;;;;;;1.60;1.50;;;;;;;;;;5069044;28;20117;-55
2021/06/29 06:43:03;;;;;;;1.35;1.10;;;;;;;;;;5078389;28;20023;-53
2021/06/29 06:45:28;;;;;;;2.75;1.60;;;;;;;;;;5086472;28;20020;-54
2021/06/29 06:47:54;;;;;;;1.38;1.27;;;;;;;;;;5084843;28;20048;-56
2021/06/29 06:50:20;;;;;;;1.88;1.30;;;;;;;;;;5074267;28;20540;-53
2021/06/29 06:52:45;;;;;;;1.77;1.45;;;;;;;;;;5073753;28;20109;-55
2021/06/29 06:55:11;;;;;;;1.58;1.02;;;;;;;;;;5092029;28;20107;-51
2021/06/29 06:57:37;;;;;;;1.30;1.20;;;;;;;;;;5088735;28;20476;-50
2021/06/29 07:00:03;;;;;;;1.10;0.90;;;;;;;;;;5075269;28;20031;-55
2021/06/29 07:02:29;;;;;;;2.25;1.13;;;;;;;;;;5072244;28;20056;-53
2021/06/29 07:04:54;;;;;;;0.80;0.70;;;;;;;;;;5080506;28;20012;-55
2021/06/29 07:07:19;;;;;;;2.47;0.60;;;;;;;;;;5081053;28;20017;-52
2021/06/29 07:09:44;;;;;;;0.68;0.52;;;;;;;;;;5085361;28;20367;-55
2021/06/29 07:12:10;;;;;;;1.65;0.50;;;;;;;;;;5081185;28;20047;-55
2021/06/29 07:14:35;;;;;;;1.13;0.70;;;;;;;;;;5094214;28;20008;-51
2021/06/29 07:17:00;;;;;;;4.90;3.85;;;;;;;;;;5093434;28;20492;-51
2021/06/29 07:19:26;;;;;;;1.58;0.93;;;;;;;;;;5095036;28;20020;-51
2021/06/29 07:21:51;;;;;;;0.75;0.70;;;;;;;;;;5084620;28;20031;-52
2021/06/29 07:24:16;;;;;;;2.53;0.98;;;;;;;;;;5095416;28;20024;-54
2021/06/29 07:26:42;;;;;;;1.27;0.60;;;;;;;;;;5078534;28;20104;-51
2021/06/29 07:29:07;;;;;;;0.93;0.60;;;;;;;;;;5078937;28;20019;-55
2021/06/29 07:31:32;;;;;;;1.90;0.70;;;;;;;;;;5083974;28;20016;-53
2021/06/29 07:33:58;;;;;;;2.50;0.65;;;;;;;;;;5094495;28;20091;-55
2021/06/29 07:36:23;;;;;;;1.60;0.93;;;;;;;;;;5082026;28;20063;-54
2021/06/29 07:38:50;;;;;;;2.13;0.75;;;;;;;;;;5074624;28;20059;-51
2021/06/29 07:41:15;;;;;;;0.50;0.45;;;;;;;;;;5076844;28;20034;-53
2021/06/29 07:43:40;;;;;;;1.00;0.50;;;;;;;;;;5094589;28;20394;-53
2021/06/29 07:46:06;;;;;;;0.77;0.70;;;;;;;;;;5093796;28;20074;-53
2021/06/29 07:48:31;;;;;;;2.13;0.70;;;;;;;;;;5095014;28;20028;-54
2021/06/29 07:50:57;;;;;;;0.75;0.50;;;;;;;;;;5090934;28;20024;-55
2021/06/29 07:53:22;;;;;;;0.77;0.57;;;;;;;;;;5076706;28;20395;-53
2021/06/29 07:55:49;;;;;;;1.20;0.60;;;;;;;;;;5082063;28;20031;-54
2021/06/29 07:58:14;;;;;;;0.77;0.52;;;;;;;;;;5074804;28;20078;-52
2021/06/29 08:00:40;;;;;;;1.77;0.60;;;;;;;;;;5071343;28;20554;-54
2021/06/29 08:03:05;;;;;;;2.05;0.55;;;;;;;;;;5088073;28;20411;-52
2021/06/29 08:05:30;;;;;;;1.10;0.32;;;;;;;;;;5077796;28;20043;-56
2021/06/29 08:07:57;;;;;;;1.63;0.55;;;;;;;;;;5092471;28;20552;-54
2021/06/29 08:10:22;;;;;;;1.40;0.30;;;;;;;;;;5091401;28;20024;-56
2021/06/29 08:12:48;;;;;;;2.38;0.40;;;;;;;;;;5091456;28;20031;-55
2021/06/29 08:15:15;;;;;;;0.82;0.30;;;;;;;;;;5090869;28;20024;-55
2021/06/29 08:17:40;;;;;;;0.40;0.30;;;;;;;;;;5081124;28;20017;-53
2021/06/29 08:20:06;;;;;;;0.82;0.40;;;;;;;;;;5089992;28;20429;-53
2021/06/29 08:22:31;;;;;;;2.90;0.47;;;;;;;;;;5077048;28;20063;-51
2021/06/29 08:24:57;;;;;;;1.52;0.30;;;;;;;;;;5086131;28;20459;-56
2021/06/29 08:27:22;;;;;;;1.17;0.30;;;;;;;;;;5083322;28;20538;-54
2021/06/29 08:29:48;;;;;;;1.45;0.30;;;;;;;;;;5073673;28;20459;-54
2021/06/29 08:32:13;;;;;;;1.67;0.50;;;;;;;;;;5074335;28;20024;-53
2021/06/29 08:34:38;;;;;;;1.65;0.73;;;;;;;;;;5089244;28;20640;-53
2021/06/29 08:37:04;;;;;;;0.60;0.40;;;;;;;;;;5088113;28;20051;-52
2021/06/29 08:39:29;;;;;;;0.77;0.30;;;;;;;;;;5081117;28;20396;-54
2021/06/29 08:41:54;;;;;;;1.92;0.40;;;;;;;;;;5079869;28;20387;-54
2021/06/29 08:44:20;;;;;;;1.40;0.40;;;;;;;;;;5078925;28;20102;-55
2021/06/29 08:46:45;;;;;;;1.17;0.60;;;;;;;;;;5082958;28;20051;-52
2021/06/29 08:49:12;;;;;;;1.20;0.50;;;;;;;;;;5093342;28;20098;-53
2021/06/29 08:51:37;;;;;;;0.85;0.40;;;;;;;;;;5090101;28;20262;-54
2021/06/29 08:54:03;;;;;;;0.88;0.45;;;;;;;;;;5083908;28;20020;-50
2021/06/29 08:56:30;;;;;;;0.80;0.40;;;;;;;;;;5088729;28;20032;-55
2021/06/29 08:58:55;;;;;;;1.13;0.52;;;;;;;;;;5087722;28;20391;-51
2021/06/29 09:01:20;;;;;;;1.33;0.40;;;;;;;;;;5084610;28;20024;-51
2021/06/29 09:03:46;;;;;;;0.85;0.50;;;;;;;;;;5076667;28;20028;-52
2021/06/29 09:06:11;;;;;;;0.67;0.50;;;;;;;;;;5087412;28;20016;-51
2021/06/29 09:08:38;;;;;;;0.77;0.50;;;;;;;;;;5091181;28;20757;-53
2021/06/29 09:11:17;;;;;;;1.60;0.70;;;;;;;;;;5077016;28;20016;-54
2021/06/29 09:14:01;;;;;;;0.55;0.45;;;;;;;;;;5082138;28;20414;-52
2021/06/29 09:16:26;;;;;;;0.57;0.50;;;;;;;;;;5073422;28;20020;-54
2021/06/29 09:18:52;;;;;;;0.80;0.50;;;;;;;;;;5075968;28;20379;-50
2021/06/29 09:21:17;;;;;;;0.90;0.50;;;;;;;;;;5087084;28;20792;-53
2021/06/29 09:23:48;;;;;;;1.37;0.53;;;;;;;;;;5086116;28;20343;-53
2021/06/29 09:26:14;;;;;;;0.75;0.60;;;;;;;;;;5092819;28;20686;-53
2021/06/29 09:28:39;;;;;;;0.82;0.50;;;;;;;;;;5089549;28;20043;-54
2021/06/29 09:31:06;;;;;;;0.88;0.52;;;;;;;;;;5084419;28;20459;-51
2021/06/29 09:33:33;;;;;;;0.88;0.80;;;;;;;;;;5081074;28;20101;-51
2021/06/29 09:36:01;;;;;;;1.75;0.80;;;;;;;;;;5086398;28;20211;-55
2021/06/29 09:38:37;;;;;;;0.60;0.60;;;;;;;;;;5092307;28;20467;-52
2021/06/29 09:41:04;;;;;;;0.88;0.73;;;;;;;;;;5085834;28;20098;-52
2021/06/29 09:43:32;;;;;;;1.27;0.70;;;;;;;;;;5079573;28;20027;-54
2021/06/29 09:46:00;;;;;;;0.60;0.57;;;;;;;;;;5091412;28;20077;-54
2021/06/29 09:48:28;;;;;;;1.63;1.25;;;;;;;;;;5091595;28;20016;-56
2021/06/29 09:50:55;;;;;;;1.17;0.52;;;;;;;;;;5073584;28;20020;-55
2021/06/29 09:53:26;;;;;;;1.85;0.70;;;;;;;;;;5087182;28;20023;-55
2021/06/29 09:55:55;;;;;;;1.27;0.50;;;;;;;;;;5080265;28;20437;-55
2021/06/29 09:58:21;;;;;;;0.85;0.52;;;;;;;;;;5092374;28;20020;-55
2021/06/29 10:00:53;;;;;;;1.42;0.80;;;;;;;;;;5074050;28;20021;-56
2021/06/29 10:03:20;;;;;;;0.70;0.60;;;;;;;;;;5085155;28;20040;-54
2021/06/29 10:05:46;;;;;;;1.60;0.60;;;;;;;;;;5080142;28;20024;-54
2021/06/29 10:08:20;;;;;;;1.65;0.50;;;;;;;;;;5084954;28;20019;-55
2021/06/29 10:10:45;;;;;;;0.60;0.60;;;;;;;;;;5082061;28;20119;-54
2021/06/29 10:13:15;;;;;;;1.07;0.60;;;;;;;;;;5081965;28;20170;-55
2021/06/29 10:15:40;;;;;;;0.77;0.60;;;;;;;;;;5091285;28;20300;-50
2021/06/29 10:18:06;;;;;;;0.95;0.70;;;;;;;;;;5072768;28;20109;-56
2021/06/29 10:20:38;;;;;;;1.02;0.73;;;;;;;;;;5077793;28;20553;-53
2021/06/29 10:23:03;;;;;;;0.98;0.50;;;;;;;;;;5076532;28;20158;-55
2021/06/29 10:25:28;;;;;;;2.80;0.98;;;;;;;;;;5080982;28;20051;-52
2021/06/29 10:27:54;;;;;;;1.42;0.60;;;;;;;;;;5091760;28;20051;-51
2021/06/29 10:30:22;;;;;;;1.50;0.70;;;;;;;;;;5078719;28;20043;-52
2021/06/29 10:32:47;;;;;;;1.38;0.70;;;;;;;;;;5076740;28;20020;-54
2021/06/29 10:35:13;;;;;;;2.13;0.70;;;;;;;;;;5088301;28;20489;-54
2021/06/29 10:37:39;;;;;;;1.15;0.70;;;;;;;;;;5090766;28;20020;-51
2021/06/29 10:40:05;;;;;;;1.27;0.70;;;;;;;;;;5084514;28;20075;-54
2021/06/29 10:42:30;;;;;;;1.88;0.70;;;;;;;;;;5079296;28;20319;-55
2021/06/29 10:44:56;;;;;;;0.50;0.50;;;;;;;;;;5089830;28;20475;-55
2021/06/29 10:47:21;;;;;;;0.50;0.50;;;;;;;;;;5091297;28;20049;-56
2021/06/29 10:49:47;;;;;;;0.97;0.60;;;;;;;;;;5082781;28;20270;-55
2021/06/29 10:52:27;;;;;;;1.05;0.50;;;;;;;;;;5079939;28;20273;-53
2021/06/29 10:54:59;;;;;;;0.73;0.60;;;;;;;;;;5090031;28;20032;-56
2021/06/29 10:57:25;;;;;;;0.80;0.73;;;;;;;;;;5091310;28;20032;-55
2021/06/29 10:59:51;;;;;;;0.93;0.60;;;;;;;;;;5086404;28;20038;-54
2021/06/29 11:02:27;;;;;;;0.60;0.60;;;;;;;;;;5077660;28;20044;-55
2021/06/29 11:04:58;;;;;;;0.60;0.50;;;;;;;;;;5088942;28;20020;-53
2021/06/29 11:07:27;;;;;;;1.35;0.40;;;;;;;;;;5080972;28;20020;-52
2021/06/29 11:09:53;;;;;;;2.15;0.52;;;;;;;;;;5080370;28;20522;-54
2021/06/29 11:12:24;;;;;;;0.50;0.50;;;;;;;;;;5079516;28;20024;-54
2021/06/29 11:14:51;;;;;;;1.15;0.73;;;;;;;;;;5080545;28;20106;-55
2021/06/29 11:17:20;;;;;;;0.50;0.50;;;;;;;;;;5071457;28;20460;-54
2021/06/29 11:20:00;;;;;;;0.60;0.60;;;;;;;;;;5071366;28;20029;-53
2021/06/29 11:22:44;;;;;;;0.80;0.73;;;;;;;;;;5084717;28;20107;-55
2021/06/29 11:25:09;;;;;;;0.65;0.47;;;;;;;;;;5080138;28;20027;-57
2021/06/29 11:27:53;;;;;;;1.38;0.73;;;;;;;;;;5091717;28;20021;-55
2021/06/29 11:30:57;;;;;;;1.88;0.70;;;;;;;;;;5088631;28;20031;-55
2021/06/29 11:33:40;;;;;;;1.00;0.88;;;;;;;;;;5045558;28;20030;-54
2021/06/29 11:36:20;;;;;;;0.93;0.60;;;;;;;;;;5037136;28;20025;-55
2021/06/29 11:38:45;;;;;;;0.52;0.52;;;;;;;;;;5036644;28;20037;-54
2021/06/29 11:41:31;;;;;;;0.90;0.63;;;;;;;;;;5033104;28;20017;-54
2021/06/29 11:44:02;;;;;;;1.20;0.80;;;;;;;;;;5033285;28;20302;-52
2021/06/29 11:46:46;;;;;;;1.33;0.70;;;;;;;;;;5052604;28;20365;-53
2021/06/29 11:49:13;;;;;;;0.50;0.50;;;;;;;;;;5045839;28;20104;-54
2021/06/29 11:51:57;;;;;;;2.05;0.70;;;;;;;;;;5028862;28;20508;-54
2021/06/29 11:54:32;;;;;;;0.52;0.52;;;;;;;;;;5037708;28;20048;-54
2021/06/29 11:56:58;;;;;;;1.77;0.73;;;;;;;;;;5032480;28;20079;-53
2021/06/29 11:59:25;;;;;;;0.50;0.50;;;;;;;;;;5036986;28;20021;-55
2021/06/29 12:02:00;;;;;;;0.65;0.65;;;;;;;;;;5028949;28;20057;-55
2021/06/29 12:04:25;;;;;;;1.95;0.80;;;;;;;;;;5069446;28;20081;-55
2021/06/29 12:06:59;;;;;;;0.87;0.60;;;;;;;;;;5093452;28;20024;-56
2021/06/29 12:09:28;;;;;;;0.80;0.60;;;;;;;;;;5087673;28;20012;-55
2021/06/29 12:12:12;;;;;;;1.02;0.88;;;;;;;;;;5075442;28;20020;-55
2021/06/29 12:14:37;;;;;;;0.70;0.70;;;;;;;;;;5084188;28;20028;-56
2021/06/29 12:17:02;;;;;;;1.07;0.70;;;;;;;;;;5082432;28;20029;-55
2021/06/29 12:19:28;;;;;;;1.30;0.80;;;;;;;;;;5073674;28;20128;-56
2021/06/29 12:21:54;;;;;;;2.33;0.80;;;;;;;;;;5079254;28;20103;-56
2021/06/29 12:24:19;;;;;;;1.45;0.68;;;;;;;;;;5094077;28;20044;-55
2021/06/29 12:26:45;;;;;;;0.70;0.70;;;;;;;;;;5085630;28;20048;-55
2021/06/29 12:29:10;;;;;;;0.70;0.70;;;;;;;;;;5085970;28;20023;-53
2021/06/29 12:31:35;;;;;;;1.10;0.80;;;;;;;;;;5075011;28;20618;-55
2021/06/29 12:34:00;;;;;;;1.53;1.00;;;;;;;;;;5080196;28;20278;-54
2021/06/29 12:36:26;;;;;;;1.45;0.90;;;;;;;;;;5089179;28;20016;-52
2021/06/29 12:38:52;;;;;;;1.08;0.70;;;;;;;;;;5080329;28;20103;-54
2021/06/29 12:41:22;;;;;;;0.80;0.70;;;;;;;;;;5085419;28;20016;-51
2021/06/29 12:43:52;;;;;;;1.33;0.85;;;;;;;;;;5093882;28;20020;-52
2021/06/29 12:46:17;;;;;;;2.58;1.10;;;;;;;;;;5088905;28;20016;-56
2021/06/29 12:49:01;;;;;;;1.37;1.10;;;;;;;;;;5076732;28;20115;-50
2021/06/29 12:51:27;;;;;;;2.00;1.25;;;;;;;;;;5081814;28;20277;-52
2021/06/29 12:53:56;;;;;;;1.40;1.30;;;;;;;;;;5088265;28;20106;-55
2021/06/29 12:56:28;;;;;;;2.67;1.08;;;;;;;;;;5089350;28;20074;-55
2021/06/29 12:58:53;;;;;;;1.60;1.23;;;;;;;;;;5079980;28;20115;-56
2021/06/29 13:01:20;;;;;;;1.55;1.13;;;;;;;;;;5080157;28;20550;-54
2021/06/29 13:03:50;;;;;;;1.92;1.20;;;;;;;;;;5088301;28;20391;-55
2021/06/29 13:06:16;;;;;;;1.33;1.23;;;;;;;;;;5082358;28;20449;-57
2021/06/29 13:08:42;;;;;;;1.85;1.63;;;;;;;;;;5082590;28;20027;-55
2021/06/29 13:11:13;;;;;;;2.15;2.03;;;;;;;;;;5081068;28;20016;-54
2021/06/29 13:13:38;;;;;;;2.03;1.83;;;;;;;;;;5078931;28;20028;-51
2021/06/29 13:16:15;;;;;;;2.77;2.00;;;;;;;;;;5081580;28;20081;-54
2021/06/29 13:18:40;;;;;;;3.80;2.35;;;;;;;;;;5082538;28;20281;-55
2021/06/29 13:21:15;;;;;;;3.53;2.63;;;;;;;;;;5077082;28;20016;-53
2021/06/29 13:23:52;;;;;;;2.97;2.40;;;;;;;;;;5083276;28;20280;-58
2021/06/29 13:26:18;;;;;;;2.70;2.50;;;;;;;;;;5081477;28;20552;-55
2021/06/29 13:28:43;;;;;;;3.88;2.22;;;;;;;;;;5091794;28;20103;-54
2021/06/29 13:31:08;;;;;;;2.53;2.28;;;;;;;;;;5075269;28;20510;-53
2021/06/29 13:33:35;;;;;;;3.58;2.30;;;;;;;;;;5086491;28;20063;-53
2021/06/29 13:36:00;;;;;;;2.40;2.30;;;;;;;;;;5078863;28;20028;-54
2021/06/29 13:38:25;;;;;;;5.18;2.65;;;;;;;;;;5083938;28;20429;-53
2021/06/29 13:40:51;;;;;;;3.03;2.70;;;;;;;;;;5077020;28;20750;-53
2021/06/29 13:43:19;;;;;;;3.22;3.00;;;;;;;;;;5083926;28;20099;-56
2021/06/29 13:45:46;;;;;;;3.30;2.78;;;;;;;;;;5073379;28;20016;-55
2021/06/29 13:48:12;;;;;;;3.25;3.05;;;;;;;;;;5090125;28;20016;-56
2021/06/29 13:50:44;;;;;;;2.80;2.53;;;;;;;;;;5087638;28;20087;-54
2021/06/29 13:53:10;;;;;;;3.10;2.90;;;;;;;;;;5085139;28;20489;-54
2021/06/29 13:55:49;;;;;;;2.60;2.47;;;;;;;;;;5089614;28;20456;-55
2021/06/29 13:58:15;;;;;;;3.03;2.72;;;;;;;;;;5088116;28;20040;-55
2021/06/29 14:00:41;;;;;;;2.78;2.45;;;;;;;;;;5081472;28;20035;-55
2021/06/29 14:03:10;;;;;;;2.70;2.50;;;;;;;;;;5075410;28;20053;-56
2021/06/29 14:05:37;;;;;;;3.15;2.85;;;;;;;;;;5092299;28;20473;-56
2021/06/29 14:08:41;;;;;;;3.70;3.38;;;;;;;;;;5089235;28;20016;-56
2021/06/29 14:11:14;;;;;;;3.38;2.97;;;;;;;;;;5009663;28;20026;-56
2021/06/29 14:13:41;;;;;;;9.70;8.50;;;;;;;;;;5021255;28;20115;-55
2021/06/29 14:16:08;;;;;;;6.03;2.80;;;;;;;;;;5024763;28;20030;-57
2021/06/29 14:18:33;;;;;;;2.97;2.25;;;;;;;;;;5027108;28;20041;-54
2021/06/29 14:21:03;;;;;;;3.45;2.30;;;;;;;;;;5023789;28;20029;-53
2021/06/29 14:23:28;;;;;;;4.68;2.22;;;;;;;;;;5012655;28;20181;-55
2021/06/29 14:25:54;;;;;;;2.85;2.65;;;;;;;;;;5016776;28;20108;-55
2021/06/29 14:28:19;;;;;;;4.47;2.45;;;;;;;;;;5024584;28;20413;-53
2021/06/29 14:30:44;;;;;;;3.97;2.55;;;;;;;;;;5023596;28;20400;-54
2021/06/29 14:33:10;;;;;;;3.37;2.27;;;;;;;;;;5012987;28;20135;-55
2021/06/29 14:35:35;;;;;;;2.72;1.00;;;;;;;;;;5020574;28;20771;-57
2021/06/29 14:38:01;;;;;;;3.50;1.33;;;;;;;;;;5024232;28;20056;-56
2021/06/29 14:40:26;;;;;;;2.42;1.35;;;;;;;;;;5016307;28;20018;-54
2021/06/29 14:42:51;;;;;;;2.28;1.65;;;;;;;;;;5018423;28;20472;-55
2021/06/29 14:45:17;;;;;;;1.88;1.45;;;;;;;;;;5054199;28;20033;-54